Latest Weather Observations for Loxton

IDS60801

Issued at 5:31 pm CST Thursday 30 July 2015 (issued every 30 minutes, with the page automatically refreshed every 10 minutes)

About weather observations | Map of weather stations | Latest weather observations for SA | Other Formats
Station Details ID: 024024 Name: LOXTON RESEARCH CENTRE Lat: -34.44 Lon: 140.60 Height: 30.1 m
Data from the previous 72 hours. | See also: Recent months at Loxton
Date/Time
CST
Temp
°C
App
Temp
°C
Dew
Point
Rel
Hum
%
Delta-T
°C
Wind Press
QNH
hPa
Press
MSL
hPa
Rain
since 9 am
mm
Dir
 
Spd
km/h
Gust
km/h
Spd
kts
Gust
kts
30/05:30pm 15.6 10.3 1.7 39 6.1 W 19 30 10 16 1018.4 1018.4 0.0
30/05:00pm 16.9 11.3 1.2 34 6.9 W 20 30 11 16 1018.1 1018.1 0.0
30/04:30pm 18.0 11.0 -0.3 29 7.9 W 26 41 14 22 1017.6 1017.6 0.0
30/04:00pm 18.9 11.7 -1.7 24 8.7 WNW 26 39 14 21 1017.4 1017.4 0.0
30/03:30pm 18.6 12.3 -1.1 26 8.4 WNW 22 35 12 19 1017.3 1017.3 0.0
30/03:00pm 18.2 11.9 -0.7 28 8.1 WNW 22 33 12 18 1017.4 1017.4 0.0
30/02:30pm 18.3 12.3 -1.7 25 8.4 NW 20 32 11 17 1017.2 1017.2 0.0
30/02:00pm 17.2 11.5 -0.7 29 7.6 NNW 19 26 10 14 1017.3 1017.3 0.0
30/01:30pm 16.6 10.7 -1.9 28 7.6 NNW 19 28 10 15 1017.5 1017.5 0.0
30/01:00pm 16.1 10.7 -1.3 30 7.2 NNW 17 24 9 13 1018.2 1018.2 0.0
30/12:30pm 15.5 9.4 -2.0 30 7.1 NNW 20 30 11 16 1018.6 1018.6 0.0
30/12:00pm 15.2 9.2 -1.8 31 6.9 NNW 20 35 11 19 1019.0 1019.0 0.0
30/11:30am 14.7 8.7 -1.2 33 6.5 N 20 30 11 16 1019.3 1019.3 0.0
30/11:00am 14.0 7.6 -1.7 34 6.3 NNW 22 35 12 19 1019.7 1019.7 0.0
30/10:30am 12.1 6.2 -0.5 42 5.1 NNW 20 30 11 16 1020.7 1020.7 0.0
30/10:00am 10.5 6.1 0.4 49 4.1 N 13 19 7 10 1021.1 1021.1 0.0
30/09:30am 10.0 5.6 0.3 51 3.9 N 13 17 7 9 1021.5 1021.5 0.0
30/09:00am 9.3 4.5 0.0 52 3.7 NNW 15 24 8 13 1021.6 1021.6 0.0
30/08:30am 9.3 4.4 -0.3 51 3.8 N 15 24 8 13 1021.4 1021.4 0.0
30/08:00am 6.4 3.3 1.1 69 2.1 NNE 7 11 4 6 1021.4 1021.4 0.0
30/07:30am 6.5 2.9 0.6 66 2.3 NNE 9 13 5 7 1021.3 1021.3 0.0
30/07:00am 6.6 2.2 0.5 65 2.4 NNE 13 20 7 11 1021.0 1021.0 0.0
30/06:30am 6.8 2.8 0.4 64 2.5 NNE 11 17 6 9 1021.7 1021.7 0.0
30/06:00am 7.5 4.0 1.0 63 2.6 NNE 9 15 5 8 1022.2 1022.2 0.0
30/05:30am 7.9 3.9 0.3 58 3.0 N 11 15 6 8 1022.4 1022.4 0.0
30/05:00am 8.2 4.6 0.4 58 3.1 N 9 15 5 8 1022.6 1022.6 0.0
30/04:30am 8.2 4.5 0.1 56 3.2 N 9 17 5 9 1022.4 1022.4 0.0
30/04:00am 8.0 4.0 0.4 58 3.0 N 11 15 6 8 1022.6 1022.6 0.0
30/03:30am 7.8 3.8 0.8 61 2.8 NNE 11 13 6 7 1023.0 1023.0 0.0
30/03:00am 8.0 4.4 0.4 58 3.0 NNW 9 15 5 8 1023.7 1023.7 0.0
30/02:30am 8.4 4.4 0.3 56 3.2 N 11 19 6 10 1024.0 1024.0 0.0
30/02:00am 7.5 3.9 0.7 62 2.7 N 9 17 5 9 1023.9 1023.9 0.0
30/01:30am 5.8 2.7 1.2 72 1.8 NNE 7 11 4 6 1024.1 1024.1 0.0
30/01:00am 6.1 2.2 1.3 71 1.9 NNE 11 15 6 8 1024.1 1024.1 0.0
30/12:30am 6.6 2.8 1.6 70 2.0 NNE 11 15 6 8 1024.8 1024.8 0.0
30/12:00am 7.0 2.8 1.5 68 2.2 NNE 13 15 7 8 1025.3 1025.3 0.0
 
Date/Time
CST
Temp
°C
App
Temp
°C
Dew
Point
Rel
Hum
%
Delta-T
°C
Wind Press
QNH
hPa
Press
MSL
hPa
Rain
since 9 am
mm
Dir
 
Spd
km/h
Gust
km/h
Spd
kts
Gust
kts
29/11:30pm 7.5 3.7 1.6 66 2.4 NNE 11 17 6 9 1025.8 1025.8 0.0
29/11:00pm 8.4 4.2 1.5 62 2.8 N 13 15 7 8 1026.1 1026.1 0.0
29/10:30pm 8.9 5.1 1.9 61 2.9 NNE 11 15 6 8 1026.3 1026.3 0.0
29/10:00pm 9.0 5.6 2.0 61 2.9 NNE 9 13 5 7 1026.7 1026.7 0.0
29/09:30pm 8.5 5.2 2.2 64 2.6 NNE 9 13 5 7 1027.0 1027.0 0.0
29/09:00pm 8.8 5.9 2.6 65 2.6 NE 7 9 4 5 1027.5 1027.5 0.0
29/08:30pm 9.0 5.7 2.3 63 2.8 N 9 11 5 6 1027.3 1027.3 0.0
29/08:00pm 8.0 5.5 3.5 73 1.9 NNE 6 7 3 4 1027.5 1027.5 0.0
29/07:30pm 7.9 4.8 3.7 75 1.8 NE 9 11 5 6 1027.6 1027.6 0.0
29/07:00pm 8.7 6.2 3.6 70 2.2 NE 6 6 3 3 1027.7 1027.7 0.0
29/06:30pm 9.6 6.8 3.3 65 2.7 NNE 7 9 4 5 1027.5 1027.5 0.0
29/06:00pm 10.2 6.9 2.4 58 3.3 NNE 9 11 5 6 1027.3 1027.3 0.0
29/05:30pm 11.5 8.1 1.8 51 4.1 N 9 13 5 7 1027.3 1027.3 0.0
29/05:00pm 12.4 8.9 1.2 46 4.7 N 9 17 5 9 1027.7 1027.7 0.0
29/04:30pm 12.9 8.6 1.0 44 5.0 N 13 20 7 11 1027.8 1027.8 0.0
29/04:00pm 13.0 9.1 1.2 44 5.0 N 11 19 6 10 1027.8 1027.8 0.0
29/03:30pm 13.1 8.5 1.3 44 5.0 N 15 26 8 14 1028.0 1028.0 0.0
29/03:00pm 13.3 9.1 1.6 45 5.0 NNW 13 20 7 11 1028.1 1028.1 0.0
29/02:30pm 13.2 8.5 1.1 43 5.1 N 15 24 8 13 1028.4 1028.4 0.0
29/02:00pm 13.2 8.2 1.5 45 5.0 N 17 24 9 13 1028.5 1028.5 0.0
29/01:30pm 13.6 8.6 1.4 43 5.2 N 17 26 9 14 1029.1 1029.2 0.0
29/01:00pm 13.3 8.2 1.0 43 5.2 N 17 28 9 15 1030.0 1030.1 0.0
29/12:30pm 13.1 8.5 1.6 45 4.9 NNW 15 24 8 13 1030.6 1030.7 0.0
29/12:00pm 12.6 7.6 1.5 46 4.7 N 17 28 9 15 1031.3 1031.4 0.0
29/11:30am 13.1 9.0 2.2 47 4.7 NNW 13 20 7 11 1032.2 1032.3 0.0
29/11:00am 11.7 6.3 1.4 49 4.4 N 19 30 10 16 1032.2 1032.3 0.0
29/10:30am 11.1 7.0 2.4 55 3.7 N 13 20 7 11 1032.7 1032.8 0.0
29/10:00am 10.3 6.2 2.2 57 3.4 N 13 20 7 11 1032.8 1032.9 0.0
29/09:30am 10.0 6.3 2.1 58 3.3 NW 11 15 6 8 1034.0 1034.1 0.0
29/09:11am - - - - - - - - - - - - -
29/09:00am 8.2 4.8 2.1 65 2.5 NW 9 15 5 8 1033.8 1033.9 0.2
29/08:30am 5.6 3.0 3.2 84 1.0 NNE 6 9 3 5 1033.1 1033.2 0.2
29/08:00am 3.9 2.0 2.9 93 0.4 NE 2 6 1 3 1032.9 1033.0 0.2
29/07:30am 2.2 -0.7 1.7 96 0.2 NE 6 7 3 4 1032.9 1033.0 0.2
29/07:00am 2.2 0.5 1.7 96 0.2 CALM 0 0 0 0 1033.2 1033.3 0.2
29/06:30am 2.5 0.4 1.7 94 0.3 NE 2 6 1 3 1033.3 1033.4 0.2
29/06:00am 2.7 0.6 1.4 91 0.5 N 2 6 1 3 1033.0 1033.1 0.2
29/05:30am 4.3 1.1 2.8 90 0.6 NNE 9 11 5 6 1032.4 1032.5 0.0
29/05:00am 2.7 1.0 1.9 94 0.3 CALM 0 0 0 0 1031.9 1032.0 0.0
29/04:30am 3.6 2.1 3.1 97 0.2 CALM 0 0 0 0 1032.3 1032.4 0.0
29/04:00am 4.0 2.5 3.0 93 0.4 CALM 0 0 0 0 1032.5 1032.6 0.0
29/03:30am 4.7 2.1 3.2 90 0.6 NNW 6 6 3 3 1032.4 1032.5 0.0
29/03:00am 6.3 3.7 4.2 86 0.9 N 7 11 4 6 1032.7 1032.8 0.0
29/02:30am 6.1 3.8 4.9 92 0.5 NNE 6 9 3 5 1033.0 1033.1 0.0
29/02:00am 5.8 4.7 4.9 94 0.4 CALM 0 6 0 3 1033.3 1033.4 0.0
29/01:30am 5.7 4.6 5.0 95 0.3 CALM 0 0 0 0 1033.2 1033.3 0.0
29/01:00am 5.7 4.6 5.0 95 0.3 CALM 0 0 0 0 1033.5 1033.6 0.0
29/12:30am 5.0 3.7 4.0 93 0.4 CALM 0 0 0 0 1033.8 1033.9 0.0
29/12:00am 4.7 3.4 4.2 97 0.2 CALM 0 0 0 0 1034.0 1034.1 0.0
 
Date/Time
CST
Temp
°C
App
Temp
°C
Dew
Point
Rel
Hum
%
Delta-T
°C
Wind Press
QNH
hPa
Press
MSL
hPa
Rain
since 9 am
mm
Dir
 
Spd
km/h
Gust
km/h
Spd
kts
Gust
kts
28/11:30pm 4.9 3.6 4.2 95 0.3 CALM 0 0 0 0 1034.5 1034.6 0.0
28/11:00pm 5.1 3.9 4.4 95 0.3 CALM 0 0 0 0 1034.6 1034.7 0.0
28/10:30pm 5.3 4.1 4.6 95 0.3 CALM 0 0 0 0 1034.6 1034.7 0.0
28/10:00pm 5.9 4.7 4.7 92 0.5 CALM 0 0 0 0 1034.9 1035.0 0.0
28/09:30pm 6.5 5.5 5.6 94 0.4 CALM 0 0 0 0 1034.7 1034.8 0.0
28/09:00pm 7.6 6.7 6.0 90 0.7 CALM 0 0 0 0 1035.1 1035.2 0.0
28/08:30pm 8.8 7.8 5.7 81 1.4 CALM 0 6 0 3 1035.2 1035.3 0.0
28/08:00pm 9.5 8.7 6.7 83 1.3 CALM 0 0 0 0 1035.0 1035.1 0.0
28/07:30pm 10.1 9.4 6.9 80 1.5 CALM 0 0 0 0 1035.3 1035.4 0.0
28/07:00pm 10.1 9.5 7.6 84 1.2 CALM 0 0 0 0 1035.2 1035.3 0.0
28/06:30pm 10.6 10.1 7.9 83 1.3 CALM 0 0 0 0 1035.2 1035.3 0.0
28/06:00pm 11.0 10.4 7.4 78 1.7 CALM 0 0 0 0 1035.1 1035.2 0.0
28/05:30pm 11.8 10.8 5.7 66 2.8 CALM 0 0 0 0 1035.1 1035.2 0.0
28/05:00pm 12.7 11.6 5.1 60 3.5 CALM 0 0 0 0 1034.6 1034.7 0.0
28/04:30pm 13.0 10.7 4.9 58 3.7 ESE 6 7 3 4 1034.5 1034.6 0.0
28/04:00pm 13.3 12.0 4.2 54 4.2 CALM 0 0 0 0 1034.5 1034.6 0.0
28/03:30pm 13.2 10.8 4.1 54 4.1 ESE 6 7 3 4 1034.7 1034.8 0.0
28/03:00pm 13.2 11.1 4.1 54 4.1 ESE 4 7 2 4 1034.8 1034.9 0.0
28/02:30pm 13.1 11.8 4.0 54 4.1 CALM 0 0 0 0 1034.9 1035.0 0.0
28/02:00pm 13.0 10.2 3.2 51 4.4 SSW 7 11 4 6 1035.3 1035.4 0.0
28/01:30pm 14.2 11.9 4.6 52 4.4 WSW 6 13 3 7 1035.7 1035.8 0.0
28/01:00pm 13.4 11.1 4.9 56 3.9 WSW 6 11 3 6 1036.2 1036.3 0.0
28/12:30pm 12.9 10.6 5.6 61 3.4 WSW 7 15 4 8 1036.7 1036.8 0.0
28/12:00pm 12.8 10.4 5.2 60 3.5 NW 7 13 4 7 1037.2 1037.3 0.0
28/11:30am 12.4 10.1 5.7 63 3.1 WNW 7 15 4 8 1037.9 1038.0 0.0
28/11:00am 11.3 9.2 5.9 69 2.5 WSW 6 9 3 5 1038.2 1038.3 0.0
28/10:30am 10.1 8.7 5.7 74 2.0 W 2 7 1 4 1038.3 1038.4 0.0
28/10:00am 8.5 6.7 5.3 80 1.4 NW 4 7 2 4 1038.5 1038.6 0.0
28/09:30am 6.4 4.2 5.2 92 0.5 NW 6 9 3 5 1038.2 1038.3 0.0
28/09:00am 4.3 1.8 3.8 97 0.2 NW 6 9 3 5 1038.6 1038.7 0.0
28/08:30am 3.2 0.3 2.4 94 0.3 WNW 7 11 4 6 1038.6 1038.7 0.0
28/08:00am 0.6 -1.4 0.0 96 0.2 CALM 0 0 0 0 1038.3 1038.4 0.0
28/07:30am -0.6 - - - - CALM 0 0 0 0 1038.3 1038.4 0.0
28/07:00am -1.1 - - - - CALM 0 0 0 0 1038.0 1038.1 0.0
28/06:30am -1.0 - - - - CALM 0 0 0 0 1037.6 1037.7 0.0
28/06:00am -1.0 - - - - CALM 0 0 0 0 1037.2 1037.3 0.0
28/05:30am -0.8 - - - - CALM 0 0 0 0 1036.9 1037.0 0.0
28/05:00am -0.7 - - - - CALM 0 0 0 0 1036.5 1036.6 0.0
28/04:30am -0.7 - - - - CALM 0 0 0 0 1036.5 1036.6 0.0
28/04:00am -0.1 - - - - CALM 0 0 0 0 1036.4 1036.5 0.0
28/03:30am -0.2 - - - - CALM 0 0 0 0 1036.4 1036.5 0.0
28/03:00am 0.2 - - - - CALM 0 6 0 3 1036.3 1036.4 0.0
28/02:30am 2.2 -0.8 1.7 96 0.2 W 7 9 4 5 1036.5 1036.6 0.0
28/02:00am 0.4 -2.7 0.1 98 0.1 W 6 7 3 4 1036.4 1036.5 0.0
28/01:30am 0.6 -1.7 0.3 98 0.1 W 2 9 1 5 1036.2 1036.3 0.0
28/01:00am 0.6 -1.3 0.6 100 0.0 CALM 0 0 0 0 1036.1 1036.2 0.0
28/12:30am 1.1 -0.8 0.8 98 0.1 CALM 0 0 0 0 1035.9 1036.0 0.0
28/12:00am 1.3 -0.6 0.5 94 0.3 CALM 0 0 0 0 1036.1 1036.2 0.0
 
Date/Time
CST
Temp
°C
App
Temp
°C
Dew
Point
Rel
Hum
%
Delta-T
°C
Wind Press
QNH
hPa
Press
MSL
hPa
Rain
since 9 am
mm
Dir
 
Spd
km/h
Gust
km/h
Spd
kts
Gust
kts
27/11:30pm 1.9 0.1 1.1 94 0.3 CALM 0 0 0 0 1036.1 1036.2 0.0
27/11:00pm 2.6 0.9 2.1 96 0.2 CALM 0 0 0 0 1036.2 1036.3 0.0
27/10:30pm 2.8 1.2 2.3 96 0.2 CALM 0 0 0 0 1036.1 1036.2 0.0
27/10:00pm 4.0 1.3 2.7 91 0.5 W 6 7 3 4 1036.0 1036.1 0.0
27/09:30pm 5.4 2.9 4.7 95 0.3 WSW 7 9 4 5 1036.1 1036.2 0.0
27/09:00pm 5.3 2.9 4.3 93 0.4 SW 6 7 3 4 1035.9 1036.0 0.0
27/08:30pm 6.5 3.6 4.9 89 0.7 SSW 9 9 5 5 1035.8 1035.9 0.0
27/08:00pm 7.2 4.3 4.9 85 1.0 SW 9 11 5 6 1035.6 1035.7 0.0
27/07:30pm 8.4 5.7 5.7 83 1.2 SW 9 11 5 6 1035.6 1035.7 0.0
27/07:00pm 10.2 7.5 5.6 73 2.1 SW 9 11 5 6 1035.3 1035.4 0.0
27/06:30pm 10.3 8.3 6.9 79 1.6 SW 7 9 4 5 1035.0 1035.1 0.0
27/06:00pm 10.6 8.8 7.0 78 1.7 SSW 6 7 3 4 1034.7 1034.8 0.0

Other Formats:

Comma delimited format used in spreadsheet applications
http://www.bom.gov.au/fwo/IDS60801/IDS60801.94682.axf

JavaScript Object Notation format (JSON) in row-major order
http://www.bom.gov.au/fwo/IDS60801/IDS60801.94682.json